メインページ
METAR-TAF:

METAR-TAF

空港 :

Williams Lake, ブリティッシュコロンビア州, カナダ

緯度: 52-11N, 経度: 122-03W, 海抜: 940m

現時点の気象観測

当レポートは45分前の02:00(UTC)に作成
西/南西の風 7kt
気温 9°C
湿度 34%
気圧 1017 hPa
視程: 24.1km
高度9000ftの千切れ雲あり
高度15000ftの曇り

METAR: CYWL 200200Z 24007KT 15SM BKN090 OVC150 09/M06 A3003 RMK AC7AC1 SLP197 DENSITY ALT 3100FT

時間: 19:45 (02:45 UTC)

予報

当レポートは2時間5分前の00:40(UTC)に作成
予報は20日の 01時(UTC)から 20日の 13時(UTC)まで有効
変向風 3kt
視程: 10km
高度5000ftの雲は散在している
高度10000ftの千切れ雲あり
20日の 01時(UTC)から 20日の 06時(UTC)まで一時的に
視程: 10km
高度5000ftの千切れ雲あり
高度10000ftの曇り
小雨

TAF: CYWL 200040Z 2001/2013 VRB03KT P6SM SCT050 BKN100 TEMPO 2001/2006 P6SM -RA BKN050 OVC100 RMK NXT FCST BY 200700Z

4,000以上の空港の気象観測と天気予報(METAR報とTAF報)

利用可能な観測所は地図上に黄色い丸と赤い丸で示す。

丸の上にカーソルを重ねると観測所名を参照できる。

次にクリックすると気象観測と天気予報を参照できる。

マップの切り替え:黒色「×」印の緑ボタンをクリックして拡大、「-」印の緑ボタンをクリックして縮小、緑色の三角印をクリックして隣りの地図に切り替え


METAR-TAF: